Time,TemperatureF,DewpointF,PressureIn,WindDirection,WindDirectionDegrees,WindSpeedMPH,WindSpeedGustMPH,Humidity,HourlyPrecipIn,Conditions,Clouds,dailyrainin,SoftwareType,DateUTC
2013-09-09 00:13:00,65.0,65.0,-100.00,SE,135,5.0,7.0,99,-99.99,,,-99.99,,2013-09-09 05:13:00,
2013-09-09 00:23:00,65.0,65.0,-100.00,SE,135,5.0,7.0,99,-99.99,,,-99.99,,2013-09-09 05:23:00,
2013-09-09 00:43:00,65.0,65.0,-100.00,SE,130,4.0,6.0,99,-99.99,,,-99.99,,2013-09-09 05:43:00,
2013-09-09 00:53:00,65.0,65.0,-100.00,SE,130,4.0,6.0,99,-99.99,,,-99.99,,2013-09-09 05:53:00,
2013-09-09 01:12:00,65.0,65.0,-100.00,SE,135,5.0,7.0,99,-99.99,,,-99.99,,2013-09-09 06:12:00,
2013-09-09 01:21:00,65.0,65.0,-100.00,SE,135,5.0,7.0,99,-99.99,,,-99.99,,2013-09-09 06:21:00,
2013-09-09 01:42:00,65.0,65.0,-100.00,SE,140,5.0,7.0,99,-99.99,,,-99.99,,2013-09-09 06:42:00,
2013-09-09 01:52:00,65.0,65.0,-100.00,SE,140,5.0,7.0,99,-99.99,,,-99.99,,2013-09-09 06:52:00,
2013-09-09 02:11:00,65.0,65.0,-100.00,SE,135,4.0,7.0,99,-99.99,,,-99.99,,2013-09-09 07:11:00,
2013-09-09 02:22:00,65.0,65.0,-100.00,SE,135,4.0,7.0,99,-99.99,,,-99.99,,2013-09-09 07:22:00,
2013-09-09 02:43:00,65.0,65.0,-100.00,SE,130,6.0,10.0,99,-99.99,,,-99.99,,2013-09-09 07:43:00,
2013-09-09 02:52:00,65.0,65.0,-100.00,SE,130,6.0,10.0,99,-99.99,,,-99.99,,2013-09-09 07:52:00,
2013-09-09 03:11:00,65.0,64.0,-100.00,SE,145,7.0,12.0,99,-99.99,,,-99.99,,2013-09-09 08:11:00,
2013-09-09 03:22:00,65.0,64.0,-100.00,SE,145,7.0,12.0,99,-99.99,,,-99.99,,2013-09-09 08:22:00,
2013-09-09 03:43:00,64.0,64.0,-100.00,ESE,120,6.0,12.0,99,-99.99,,,-99.99,,2013-09-09 08:43:00,
2013-09-09 03:52:00,64.0,64.0,-100.00,ESE,120,6.0,12.0,99,-99.99,,,-99.99,,2013-09-09 08:52:00,
2013-09-09 04:12:00,64.0,63.0,-100.00,East,85,4.0,7.0,99,-99.99,,,-99.99,,2013-09-09 09:12:00,
2013-09-09 04:22:00,64.0,63.0,-100.00,East,85,4.0,7.0,99,-99.99,,,-99.99,,2013-09-09 09:22:00,
2013-09-09 04:43:00,63.0,63.0,-100.00,SE,125,7.0,10.0,99,-99.99,,,-99.99,,2013-09-09 09:43:00,
2013-09-09 04:54:00,63.0,63.0,-100.00,SE,125,7.0,10.0,99,-99.99,,,-99.99,,2013-09-09 09:54:00,
2013-09-09 05:12:00,64.0,63.0,-100.00,SE,135,6.0,9.0,99,-99.99,,,-99.99,,2013-09-09 10:12:00,
2013-09-09 05:23:00,64.0,63.0,-100.00,SE,135,6.0,9.0,99,-99.99,,,-99.99,,2013-09-09 10:23:00,
2013-09-09 05:42:00,64.0,64.0,-100.00,SE,135,7.0,12.0,99,-99.99,,,-99.99,,2013-09-09 10:42:00,
2013-09-09 05:52:00,64.0,64.0,-100.00,SE,135,7.0,12.0,99,-99.99,,,-99.99,,2013-09-09 10:52:00,
2013-09-09 06:12:00,64.0,63.0,-100.00,SE,125,7.0,13.0,99,-99.99,,,-99.99,,2013-09-09 11:12:00,
2013-09-09 06:22:00,64.0,63.0,-100.00,SE,125,7.0,13.0,99,-99.99,,,-99.99,,2013-09-09 11:22:00,
2013-09-09 06:42:00,63.0,63.0,-100.00,ENE,75,10.0,16.0,99,-99.99,,,-99.99,,2013-09-09 11:42:00,
2013-09-09 06:52:00,63.0,63.0,-100.00,ENE,75,10.0,16.0,99,-99.99,,,-99.99,,2013-09-09 11:52:00,
2013-09-09 07:12:00,63.0,63.0,-100.00,ESE,115,7.0,13.0,99,-99.99,,,-99.99,,2013-09-09 12:12:00,
2013-09-09 07:22:00,63.0,63.0,-100.00,ESE,115,7.0,13.0,99,-99.99,,,-99.99,,2013-09-09 12:22:00,
2013-09-09 07:42:00,63.0,63.0,-100.00,ENE,75,9.0,11.0,99,-99.99,,,-99.99,,2013-09-09 12:42:00,
2013-09-09 07:52:00,63.0,63.0,-100.00,ENE,75,9.0,11.0,99,-99.99,,,-99.99,,2013-09-09 12:52:00,
2013-09-09 08:11:00,63.0,63.0,-100.00,East,85,7.0,12.0,99,-99.99,,,-99.99,,2013-09-09 13:11:00,
2013-09-09 08:22:00,63.0,63.0,-100.00,East,85,7.0,12.0,99,-99.99,,,-99.99,,2013-09-09 13:22:00,
2013-09-09 08:42:00,63.0,63.0,-100.00,East,85,4.0,6.0,99,-99.99,,,-99.99,,2013-09-09 13:42:00,
2013-09-09 08:52:00,63.0,63.0,-100.00,East,85,4.0,6.0,99,-99.99,,,-99.99,,2013-09-09 13:52:00,
2013-09-09 09:12:00,64.0,64.0,-100.00,East,100,1.0,3.0,99,-99.99,,,-99.99,,2013-09-09 14:12:00,
2013-09-09 09:22:00,64.0,64.0,-100.00,East,100,1.0,3.0,99,-99.99,,,-99.99,,2013-09-09 14:22:00,
2013-09-09 09:42:00,64.0,64.0,-100.00,North,355,3.0,4.0,99,-99.99,,,-99.99,,2013-09-09 14:42:00,
2013-09-09 09:52:00,64.0,64.0,-100.00,North,355,3.0,4.0,99,-99.99,,,-99.99,,2013-09-09 14:52:00,
2013-09-09 10:11:00,64.0,64.0,-100.00,North,5,3.0,7.0,99,-99.99,,,-99.99,,2013-09-09 15:11:00,
2013-09-09 10:22:00,64.0,64.0,-100.00,North,5,3.0,7.0,99,-99.99,,,-99.99,,2013-09-09 15:22:00,
2013-09-09 10:43:00,65.0,65.0,-100.00,ESE,105,2.0,6.0,99,-99.99,,,-99.99,,2013-09-09 15:43:00,
2013-09-09 10:53:00,65.0,65.0,-100.00,ESE,105,2.0,6.0,99,-99.99,,,-99.99,,2013-09-09 15:53:00,
2013-09-09 11:13:00,66.0,65.0,-100.00,WSW,240,1.0,3.0,99,-99.99,,,-99.99,,2013-09-09 16:13:00,
2013-09-09 11:24:00,66.0,65.0,-100.00,WSW,240,1.0,3.0,99,-99.99,,,-99.99,,2013-09-09 16:24:00,
2013-09-09 11:44:00,66.0,66.0,-100.00,West,280,5.0,7.0,99,-99.99,,,-99.99,,2013-09-09 16:44:00,
2013-09-09 11:54:00,66.0,66.0,-100.00,West,280,5.0,7.0,99,-99.99,,,-99.99,,2013-09-09 16:54:00,
2013-09-09 12:12:00,67.0,67.0,-100.00,NNW,340,6.0,7.0,99,-99.99,,,-99.99,,2013-09-09 17:12:00,
2013-09-09 12:23:00,67.0,67.0,-100.00,NNW,340,6.0,7.0,99,-99.99,,,-99.99,,2013-09-09 17:23:00,
2013-09-09 12:43:00,67.0,66.0,-100.00,NNW,340,6.0,11.0,94,-99.99,,,-99.99,,2013-09-09 17:43:00,
2013-09-09 12:53:00,67.0,66.0,-100.00,NNW,340,6.0,11.0,94,-99.99,,,-99.99,,2013-09-09 17:53:00,
2013-09-09 13:13:00,69.0,67.0,-100.00,NNE,15,6.0,9.0,92,-99.99,,,-99.99,,2013-09-09 18:13:00,
2013-09-09 13:22:00,69.0,67.0,-100.00,NNE,15,6.0,9.0,92,-99.99,,,-99.99,,2013-09-09 18:22:00,
2013-09-09 13:42:00,69.0,66.0,-100.00,North,355,6.0,9.0,91,-99.99,,,-99.99,,2013-09-09 18:42:00,
2013-09-09 13:52:00,69.0,66.0,-100.00,North,355,6.0,9.0,91,-99.99,,,-99.99,,2013-09-09 18:52:00,
2013-09-09 14:12:00,68.0,67.0,-100.00,NNW,345,9.0,15.0,94,-99.99,,,-99.99,,2013-09-09 19:12:00,
2013-09-09 14:22:00,68.0,67.0,-100.00,NNW,345,9.0,15.0,94,-99.99,,,-99.99,,2013-09-09 19:22:00,
2013-09-09 14:43:00,68.0,67.0,-100.00,North,0,9.0,12.0,95,-99.99,,,-99.99,,2013-09-09 19:43:00,
2013-09-09 14:52:00,68.0,67.0,-100.00,North,0,9.0,12.0,95,-99.99,,,-99.99,,2013-09-09 19:52:00,
2013-09-09 15:12:00,68.0,66.0,-100.00,NNW,340,11.0,17.0,95,-99.99,,,-99.99,,2013-09-09 20:12:00,
2013-09-09 15:22:00,68.0,66.0,-100.00,NNW,340,11.0,17.0,95,-99.99,,,-99.99,,2013-09-09 20:22:00,
2013-09-09 15:42:00,68.0,66.0,-100.00,NNW,335,11.0,17.0,95,-99.99,,,-99.99,,2013-09-09 20:42:00,
2013-09-09 15:53:00,68.0,66.0,-100.00,NNW,335,11.0,17.0,95,-99.99,,,-99.99,,2013-09-09 20:53:00,
2013-09-09 16:12:00,68.0,65.0,-100.00,North,355,11.0,19.0,93,-99.99,,,-99.99,,2013-09-09 21:12:00,
2013-09-09 16:22:00,68.0,65.0,-100.00,North,355,11.0,19.0,93,-99.99,,,-99.99,,2013-09-09 21:22:00,
2013-09-09 16:44:00,70.0,65.0,-100.00,North,350,11.0,14.0,86,-99.99,,,-99.99,,2013-09-09 21:44:00,
2013-09-09 16:54:00,70.0,65.0,-100.00,North,350,11.0,14.0,86,-99.99,,,-99.99,,2013-09-09 21:54:00,
2013-09-09 17:13:00,69.0,66.0,-100.00,NNW,335,9.0,15.0,91,-99.99,,,-99.99,,2013-09-09 22:13:00,
2013-09-09 17:24:00,69.0,66.0,-100.00,NNW,335,9.0,15.0,91,-99.99,,,-99.99,,2013-09-09 22:24:00,
2013-09-09 17:43:00,68.0,66.0,-100.00,NNW,340,10.0,14.0,93,-99.99,,,-99.99,,2013-09-09 22:43:00,
2013-09-09 17:54:00,68.0,66.0,-100.00,NNW,340,10.0,14.0,93,-99.99,,,-99.99,,2013-09-09 22:54:00,
2013-09-09 18:12:00,68.0,66.0,-100.00,NNW,335,9.0,17.0,93,-99.99,,,-99.99,,2013-09-09 23:12:00,
2013-09-09 18:22:00,68.0,66.0,-100.00,NNW,335,9.0,17.0,93,-99.99,,,-99.99,,2013-09-09 23:22:00,
2013-09-09 18:43:00,67.0,66.0,-100.00,NW,325,12.0,16.0,95,-99.99,,,-99.99,,2013-09-09 23:43:00,
2013-09-09 18:52:00,67.0,66.0,-100.00,NW,325,12.0,16.0,95,-99.99,,,-99.99,,2013-09-09 23:52:00,
2013-09-09 19:02:00,67.0,66.0,-100.00,NW,325,12.0,16.0,95,-99.99,,,-99.99,,2013-09-10 00:02:00,
2013-09-09 20:11:00,66.0,65.0,-100.00,NW,310,11.0,15.0,97,-99.99,,,-99.99,,2013-09-10 01:11:00,
2013-09-09 20:21:00,66.0,65.0,-100.00,NW,310,11.0,15.0,97,-99.99,,,-99.99,,2013-09-10 01:21:00,
2013-09-09 20:42:00,65.0,65.0,-100.00,NW,325,8.0,14.0,97,-99.99,,,-99.99,,2013-09-10 01:42:00,
2013-09-09 20:53:00,65.0,65.0,-100.00,NW,325,8.0,14.0,97,-99.99,,,-99.99,,2013-09-10 01:53:00,
2013-09-09 21:12:00,65.0,64.0,-100.00,NNW,335,6.0,9.0,97,-99.99,,,-99.99,,2013-09-10 02:12:00,
2013-09-09 21:22:00,65.0,64.0,-100.00,NNW,335,6.0,9.0,97,-99.99,,,-99.99,,2013-09-10 02:22:00,
2013-09-09 21:42:00,65.0,64.0,-100.00,NW,305,6.0,10.0,97,-99.99,,,-99.99,,2013-09-10 02:42:00,
2013-09-09 21:52:00,65.0,64.0,-100.00,NW,305,6.0,10.0,97,-99.99,,,-99.99,,2013-09-10 02:52:00,
2013-09-09 22:02:00,65.0,64.0,-100.00,NW,305,6.0,10.0,97,-99.99,,,-99.99,,2013-09-10 03:02:00,
2013-09-09 23:13:00,64.0,64.0,-100.00,WNW,295,6.0,8.0,99,-99.99,,,-99.99,,2013-09-10 04:13:00,
2013-09-09 23:24:00,64.0,64.0,-100.00,WNW,295,6.0,8.0,99,-99.99,,,-99.99,,2013-09-10 04:24:00,
2013-09-09 23:43:00,64.0,64.0,-100.00,WNW,295,4.0,7.0,99,-99.99,,,-99.99,,2013-09-10 04:43:00,
2013-09-09 23:53:00,64.0,64.0,-100.00,WNW,295,4.0,7.0,99,-99.99,,,-99.99,,2013-09-10 04:53:00,